Elkhorn, West Virginia
Current Conditions -  °F | °C
As of 5:52 AM on Thursday 23 Oct 2014 (Local Time) from KBLF Reporting Station
Overcast Overcast  
Wind Chill: 40°   Ceiling: 800
Heat Index: 43°   Visibility: 10mi
Dew Point: 38°   Wind: 5mph
Humidity: 82%   Direction: NA
Pressure: 30.15"   Gusts: NA
Location:  37.39°N, 81.41°W
Report Text: KBLF 230952Z AUTO VRB04KT 10SM OVC008 06/03 A3015 RMK AO2 CIG 005V012 SLP211 T00610033
Loading
Personal Weather Stations






























Interactive Weather Map
Tropical Storm Tracking
New forecast layout! Learn more

10-Day Weather Forecast

Advertisements
Track Severe Weather on mobile